Flight Track Log - Related Links

Times and Time Zones

All times are in EDT time to prevent confusion due to time zone crossing. See the USC105 flight status page for this flight to view local times or setup timezone preferences in your user account.


Time Position Orientation Groundspeed Altitude Reporting Facility
EDT Latitude Longitude Course Direction KTS MPH feet Rate Location/Type
Wed 12:15:15 AM 42.2422 -83.5703 276° West 130 150 1,500  Level Cleveland Center
Wed 12:16:16 AM 42.2364 -83.6261 262° West 158 182 2,100 694 Climbing Cleveland Center
Wed 12:17:16 AM 42.2350 -83.6794 268° West 142 163 2,900 645 Climbing Cleveland Center
Wed 12:18:17 AM 42.2378 -83.7356 274° West 148 170 3,400 590 Climbing Cleveland Center
Wed 12:19:18 AM 42.2342 -83.7889 265° West 136 157 4,100 645 Climbing Cleveland Center
Wed 12:20:00 AM 42.2167 -83.8317 270° West  Level FlightAware Approximate
Wed 12:20:18 AM 42.2306 -83.8392 264° West 139 160 4,700  Level Cleveland Center
Wed 12:21:19 AM 42.2250 -83.8919 262° West 137 158 5,200 453 Climbing Cleveland Center
Wed 12:23:10 AM 42.2267 -83.9831 271° West 142 163 6,000 244 Climbing Chicago Center
Wed 12:24:11 AM 42.2247 -84.0431 268° West 149 171 5,900 -49 Descending Chicago Center
Wed 12:25:12 AM 42.2206 -84.1044 265° West 157 181 5,900  Level Chicago Center
Wed 12:26:12 AM 42.2169 -84.1625 265° West 158 182 5,900  Level Chicago Center
Wed 12:27:13 AM 42.2128 -84.2206 264° West 157 181 5,900  Level Chicago Center
Wed 12:28:14 AM 42.2075 -84.2794 263° West 155 178 5,900  Level Chicago Center
Wed 12:29:14 AM 42.2042 -84.3372 266° West 155 178 5,900  Level Chicago Center
Wed 12:30:15 AM 42.2006 -84.3958 265° West 157 181 5,900  Level Chicago Center
Wed 12:31:16 AM 42.1975 -84.4550 266° West 158 182 5,900  Level Chicago Center
Wed 12:32:16 AM 42.1931 -84.5125 264° West 156 180 5,900  Level Chicago Center
Wed 12:33:17 AM 42.1911 -84.5817 268° West 159 183 5,900  Level Chicago Center
Wed 12:34:18 AM 42.1869 -84.6406 265° West 158 182 5,900  Level Chicago Center
Wed 12:35:18 AM 42.1825 -84.6981 264° West 157 181 5,900  Level Chicago Center
Wed 12:36:19 AM 42.1783 -84.7569 265° West 158 182 5,900  Level Chicago Center
Wed 12:37:19 AM 42.1753 -84.8161 266° West 159 183 5,900  Level Chicago Center
Wed 12:38:20 AM 42.1714 -84.8753 265° West 160 184 5,900  Level Chicago Center
Wed 12:39:21 AM 42.1678 -84.9336 265° West 158 182 5,900  Level Chicago Center
Wed 12:40:22 AM 42.1636 -84.9925 265° West 158 182 5,900  Level Chicago Center
Wed 12:41:22 AM 42.1608 -85.0511 266° West 158 182 5,900  Level Chicago Center
Wed 12:42:23 AM 42.1569 -85.1108 265° West 159 183 5,900  Level Chicago Center
Wed 12:43:23 AM 42.1519 -85.1697 263° West 159 183 5,900  Level Chicago Center
Wed 12:44:24 AM 42.1483 -85.2289 265° West 159 183 5,900  Level Chicago Center
Wed 12:45:24 AM 42.1450 -85.2894 266° West 162 186 5,900  Level Chicago Center
Wed 12:46:25 AM 42.1411 -85.3481 265° West 160 184 5,900  Level Chicago Center
Wed 12:47:25 AM 42.1367 -85.4083 264° West 162 186 5,900  Level Chicago Center
Wed 12:48:26 AM 42.1311 -85.4803 264° West 162 186 5,900  Level Chicago Center
Wed 12:49:27 AM 42.1275 -85.5397 265° West 161 185 5,900  Level Chicago Center
Wed 12:50:27 AM 42.1233 -85.6003 265° West 162 186 5,900  Level Chicago Center
Wed 12:51:28 AM 42.1183 -85.6600 264° West 162 186 5,900  Level Chicago Center
Wed 12:52:28 AM 42.1150 -85.7197 266° West 161 185 5,900  Level Chicago Center
Wed 12:53:29 AM 42.1108 -85.7792 265° West 160 184 5,900  Level Chicago Center
Wed 12:54:29 AM 42.1061 -85.8383 264° West 160 184 5,900  Level Chicago Center
Wed 12:55:30 AM 42.1019 -85.8986 265° West 162 186 5,900  Level Chicago Center
Wed 12:56:31 AM 42.0975 -85.9594 264° West 164 189 5,900  Level Chicago Center
Wed 12:57:31 AM 42.0928 -86.0186 264° West 161 185 5,900  Level Chicago Center
Wed 12:58:32 AM 42.0881 -86.0800 264° West 164 189 5,900  Level Chicago Center
Wed 12:59:32 AM 42.0842 -86.1397 265° West 162 186 5,900  Level Chicago Center
Wed 01:00:33 AM 42.0800 -86.2008 265° West 163 188 5,900  Level Chicago Center
Wed 01:01:33 AM 42.0747 -86.2617 263° West 164 189 5,900  Level Chicago Center
Wed 01:02:34 AM 42.0703 -86.3222 264° West 163 188 5,900  Level Chicago Center
Wed 01:03:34 AM 42.0656 -86.3831 264° West 164 189 5,900  Level Chicago Center
Wed 01:04:35 AM 42.0606 -86.4450 264° West 166 191 5,900  Level Chicago Center
Wed 01:05:36 AM 42.0569 -86.5061 265° West 165 190 5,900  Level Chicago Center
Wed 01:06:36 AM 42.0500 -86.5797 263° West 166 191 5,900  Level Chicago Center
Wed 01:07:37 AM 42.0458 -86.6408 265° West 165 190 5,900  Level Chicago Center
Wed 01:08:37 AM 42.0417 -86.7008 265° West 163 188 5,900  Level Chicago Center
Wed 01:09:38 AM 42.0361 -86.7633 263° West 164 189 5,900  Level Chicago Center
Wed 01:10:38 AM 42.0317 -86.8222 264° West 161 185 5,900  Level Chicago Center
Wed 01:11:39 AM 42.0261 -86.8817 263° West 161 185 5,900  Level Chicago Center
Wed 01:12:39 AM 42.0225 -86.9417 265° West 162 186 5,900  Level Chicago Center
Wed 01:13:40 AM 42.0169 -87.0008 263° West 160 184 5,900  Level Chicago Center
Wed 01:14:40 AM 42.0119 -87.0603 264° West 161 185 5,900  Level Chicago Center
Wed 01:15:41 AM 42.0075 -87.1211 264° West 164 189 5,900  Level Chicago Center
Wed 01:16:41 AM 42.0019 -87.1825 263° West 165 190 5,900  Level Chicago Center
Wed 01:17:42 AM 41.9972 -87.2428 264° West 165 190 5,900  Level Chicago Center
Wed 01:18:42 AM 41.9919 -87.3033 263° West 164 189 5,900  Level Chicago Center
Wed 01:19:43 AM 41.9867 -87.3633 263° West 164 189 5,900  Level Chicago Center
Wed 01:20:03 AM 41.9833 -87.3833 257° West 164 189 5,900  Level Chicago TRACON
Wed 01:21:09 AM 41.9833 -87.4500 270° West 162 186 5,900  Level Chicago TRACON
Wed 01:22:09 AM 41.9667 -87.5167 251° West 164 189 5,900  Level Chicago TRACON
Wed 01:23:44 AM 41.9656 -87.6025 269° West 163 188 5,900  Level Chicago Center
Wed 01:24:45 AM 41.9589 -87.6744 263° West 163 188 5,900  Level Chicago Center
Wed 01:25:45 AM 41.9547 -87.7344 265° West 163 188 5,900  Level Chicago Center
Wed 01:27:00 AM 41.9500 -87.8000 264° West 163 188 5,900  Level Chicago TRACON
Wed 01:28:47 AM 41.9139 -87.8950 243° Southwest 153 176 5,900  Level Chicago Center
Wed 01:29:47 AM 41.8936 -87.9419 240° Southwest 148 170 5,900  Level Chicago Center
Wed 01:30:12 AM 41.8833 -87.9667 241° Southwest 145 167 5,900  Level Chicago TRACON
Wed 01:30:47 AM 41.8664 -87.9764 203° Southwest 147 169 5,900 -250 Level Chicago Center
Wed 01:31:48 AM 41.8311 -88.0061 212° Southwest 144 166 5,500 -843 Descending Chicago Center
Wed 01:32:48 AM 41.7964 -88.0444 219° Southwest 151 174 4,200 -1,289 Descending Chicago Center
Wed 01:33:49 AM 41.7561 -88.0858 217° Southwest 167 192 2,900 -645 Descending Chicago Center
Wed 01:34:49 AM 41.7186 -88.1267 219° Southwest 174 200 2,900  Level Chicago Center
Wed 01:35:49 AM 41.7058 -88.1725 250° West 160 184 2,900  Level Chicago Center
Wed 01:36:50 AM 41.7106 -88.2275 277° West 154 177 2,900  Level Chicago Center
Wed 01:37:50 AM 41.7153 -88.2808 277° West 150 173 2,900  Level Chicago Center
Wed 01:38:51 AM 41.7603 -88.2953 347° North 167 192 2,900 -198 Level Chicago Center
Wed 01:39:51 AM 41.8067 -88.2822 12° North 169 194 2,500 -550 Descending Chicago Center
Wed 01:40:51 AM 41.8461 -88.2717 11° North 154 177 1,800 -645 Descending Chicago Center
Wed 01:41:52 AM 41.8775 -88.2597 16° North 113 130 1,200 -347 Descending Chicago Center
Wed 01:42:52 AM 41.9042 -88.2517 13° North 111 128 1,100 -100 Descending Chicago Center

Login

Don't have an account? Register now (free) for customized features, flight alerts, and more!